Time;durP1;ratioP1;P1;durP2;ratioP2;P2;SDS_P1;SDS_P2;PMS_P1;PMS_P2;Temp;Humidity;BMP_temperature;BMP_pressure;BME280_temperature;BME280_humidity;BME280_pressure;Samples;Min_cycle;Max_cycle;Signal;HPM_P1;HPM_P2
2022/05/02 00:05:32;;;;;;;;;;;;;;;;;;;;;
2022/05/02 00:08:08;;;;;;;;;;;9.90;83.00;;;;;;5114187;28;20034;-89
2022/05/02 00:11:07;;;;;;;;;;;;;;;;;;;;;
2022/05/02 00:16:47;;;;;;;13.52;9.07;;;9.80;83.60;;;;;;5071605;28;20085;-88
2022/05/02 00:19:21;;;;;;;11.32;8.60;;;9.80;83.70;;;;;;5059303;28;20327;-88
2022/05/02 00:21:58;;;;;;;13.07;8.55;;;9.80;83.80;;;;;;5058555;28;20039;-87
2022/05/02 00:24:52;;;;;;;8.25;7.45;;;9.70;83.90;;;;;;5062232;28;20031;-88
2022/05/02 00:27:29;;;;;;;11.15;7.40;;;9.70;84.20;;;;;;5075714;28;20077;-88
2022/05/02 00:30:11;;;;;;;10.73;8.30;;;9.70;84.10;;;;;;5063993;28;20054;-88
2022/05/02 00:32:51;;;;;;;10.63;7.70;;;9.70;84.20;;;;;;5079307;28;20028;-88
2022/05/02 00:35:22;;;;;;;10.80;8.27;;;9.70;84.30;;;;;;5079287;28;20083;-89
2022/05/02 00:38:07;;;;;;;9.10;7.40;;;9.70;84.50;;;;;;5065965;28;20280;-89
2022/05/02 00:40:40;;;;;;;10.57;8.02;;;9.70;84.60;;;;;;5099535;28;20633;-88
2022/05/02 00:43:19;;;;;;;;;;;;;;;;;;;;;
2022/05/02 00:46:14;;;;;;;9.90;7.80;;;9.60;84.90;;;;;;5101807;28;20053;-87
2022/05/02 00:48:59;;;;;;;11.18;8.25;;;9.50;85.00;;;;;;5085917;28;20479;-89
2022/05/02 00:51:48;;;;;;;11.77;7.60;;;9.50;85.10;;;;;;5100825;28;20043;-86
2022/05/02 00:54:41;;;;;;;;;;;;;;;;;;;;;
2022/05/02 00:57:24;;;;;;;;;;;;;;;;;;;;;
2022/05/02 01:00:38;;;;;;;;;;;;;;;;;;;;;
2022/05/02 01:03:25;;;;;;;;;;;;;;;;;;;;;
2022/05/02 01:09:37;;;;;;;;;;;;;;;;;;;;;
2022/05/02 01:12:37;;;;;;;11.18;8.43;;;9.30;85.80;;;;;;5108505;28;20099;-88
2022/05/02 01:15:28;;;;;;;9.50;8.32;;;9.30;85.90;;;;;;5108353;28;20043;-91
2022/05/02 01:18:04;;;;;;;;;;;9.30;86.00;;;;;;5105544;28;20028;-88
2022/05/02 01:20:57;;;;;;;8.00;6.50;;;9.30;86.00;;;;;;5085818;28;19908;-88
2022/05/02 01:23:56;;;;;;;9.65;7.82;;;9.30;86.10;;;;;;5095982;28;20040;-88
2022/05/02 01:26:39;;;;;;;9.52;7.70;;;9.30;86.10;;;;;;5091819;28;20101;-88
2022/05/02 01:32:37;;;;;;;10.95;7.57;;;9.30;86.30;;;;;;5107845;28;20085;-88
2022/05/02 01:35:33;;;;;;;10.55;8.05;;;9.30;86.30;;;;;;5079930;28;20546;-89
2022/05/02 01:38:40;;;;;;;9.07;7.65;;;9.30;86.30;;;;;;5098002;28;20460;-87
2022/05/02 01:41:31;;;;;;;;;;;;;;;;;;;;;
2022/05/02 01:44:18;;;;;;;9.90;7.25;;;9.30;86.40;;;;;;5115712;28;20020;-87
2022/05/02 01:46:58;;;;;;;;;;;;;;;;;;;;;
2022/05/02 01:49:44;;;;;;;10.77;7.30;;;9.30;86.40;;;;;;5116558;28;20034;-88
2022/05/02 01:52:40;;;;;;;;;;;;;;;;;;;;;
2022/05/02 01:55:53;;;;;;;9.35;7.78;;;9.40;86.50;;;;;;5099170;28;20036;-89
2022/05/02 01:58:40;;;;;;;8.98;7.38;;;9.40;86.60;;;;;;5097044;28;20161;-89
2022/05/02 02:01:11;;;;;;;10.10;8.50;;;9.50;86.60;;;;;;5097978;28;20016;-87
2022/05/02 02:03:53;;;;;;;9.82;7.72;;;9.40;86.60;;;;;;5097865;28;20027;-89
2022/05/02 02:06:51;;;;;;;10.85;8.38;;;9.40;86.80;;;;;;5097127;28;20048;-88
2022/05/02 02:09:29;;;;;;;10.80;8.38;;;9.40;86.90;;;;;;5078873;28;20039;-88
2022/05/02 02:12:44;;;;;;;;;;;;;;;;;;;;;
2022/05/02 02:15:18;;;;;;;9.70;7.88;;;9.40;87.00;;;;;;5095007;28;20032;-88
2022/05/02 02:17:46;;;;;;;11.30;8.32;;;9.40;87.00;;;;;;5077069;28;20107;-88
2022/05/02 02:20:56;;;;;;;;;;;;;;;;;;;;;
2022/05/02 02:23:47;;;;;;;10.95;8.30;;;9.30;87.10;;;;;;5095081;28;20032;-88
2022/05/02 02:26:38;;;;;;;10.15;7.55;;;9.30;87.20;;;;;;5076545;28;20036;-88
2022/05/02 02:29:21;;;;;;;10.50;7.75;;;9.30;87.20;;;;;;5069517;28;20128;-88
2022/05/02 02:31:58;;;;;;;11.40;8.23;;;9.30;87.30;;;;;;5055769;28;20032;-89
2022/05/02 02:34:37;;;;;;;11.38;8.80;;;9.30;87.40;;;;;;5096884;28;20020;-89
2022/05/02 02:37:43;;;;;;;10.32;8.52;;;9.20;87.50;;;;;;5080871;28;20475;-89
2022/05/02 02:40:17;;;;;;;12.85;8.50;;;9.20;87.50;;;;;;5085527;28;20031;-89
2022/05/02 02:43:04;;;;;;;11.98;9.02;;;9.20;87.60;;;;;;5097791;28;20100;-88
2022/05/02 02:45:35;;;;;;;10.85;8.55;;;9.20;87.70;;;;;;5098825;28;20081;-88
2022/05/02 02:48:24;;;;;;;10.75;8.75;;;9.10;87.70;;;;;;5099153;28;20430;-88
2022/05/02 02:50:52;;;;;;;11.55;8.90;;;9.10;87.80;;;;;;5109454;28;20012;-87
2022/05/02 02:53:31;;;;;;;10.50;8.65;;;9.10;87.90;;;;;;5098835;27;20022;-90
2022/05/02 02:56:09;;;;;;;;;;;;;;;;;;;;;
2022/05/02 02:58:58;;;;;;;11.30;8.77;;;9.00;88.00;;;;;;5110578;28;20447;-88
2022/05/02 03:01:36;;;;;;;12.20;9.13;;;9.00;88.10;;;;;;5061937;28;20032;-89
2022/05/02 03:07:01;;;;;;;11.63;8.68;;;8.90;88.20;;;;;;5094322;28;20101;-89
2022/05/02 03:09:50;;;;;;;11.30;9.73;;;8.90;88.10;;;;;;5075945;28;20074;-88
2022/05/02 03:12:37;;;;;;;13.13;9.80;;;8.90;88.20;;;;;;5087218;28;20111;-89
2022/05/02 03:15:20;;;;;;;12.10;9.63;;;8.80;88.20;;;;;;5096960;28;20118;-89
2022/05/02 03:17:46;;;;;;;10.50;8.85;;;8.80;88.40;;;;;;5096143;28;20032;-88
2022/05/02 03:26:31;;;;;;;11.98;9.07;;;8.70;88.60;;;;;;5051932;28;20036;-88
2022/05/02 03:29:37;;;;;;;;;;;;;;;;;;;;;
2022/05/02 03:32:26;;;;;;;;;;;;;;;;;;;;;
2022/05/02 03:35:20;;;;;;;;;;;;;;;;;;;;;
2022/05/02 03:37:51;;;;;;;12.48;9.45;;;8.50;88.80;;;;;;5111379;28;20128;-89
2022/05/02 03:40:37;;;;;;;12.40;10.07;;;8.50;89.00;;;;;;5096329;28;20506;-89
2022/05/02 03:43:42;;;;;;;12.75;9.57;;;8.50;89.00;;;;;;5096450;28;20027;-88
2022/05/02 03:46:21;;;;;;;11.85;9.75;;;8.40;89.10;;;;;;5096081;28;20032;-88
2022/05/02 03:49:18;;;;;;;13.82;9.50;;;8.30;89.20;;;;;;5079516;28;20083;-88
2022/05/02 03:51:53;;;;;;;13.57;10.15;;;8.30;89.10;;;;;;5096016;28;20477;-88
2022/05/02 03:57:25;;;;;;;11.18;9.43;;;8.20;89.30;;;;;;5114103;28;20123;-88
2022/05/02 04:00:08;;;;;;;;;;;;;;;;;;;;;
2022/05/02 04:03:07;;;;;;;;;;;;;;;;;;;;;
2022/05/02 04:05:46;;;;;;;13.38;9.07;;;8.10;89.50;;;;;;5111555;28;20042;-89
2022/05/02 04:08:41;;;;;;;11.07;9.23;;;8.00;89.60;;;;;;5080344;28;20082;-89
2022/05/02 04:11:12;;;;;;;11.55;9.55;;;8.00;89.70;;;;;;5096602;28;20032;-88
2022/05/02 04:13:40;;;;;;;13.30;9.45;;;8.00;89.80;;;;;;5063041;28;20078;-89
2022/05/02 04:16:26;;;;;;;12.30;8.68;;;8.00;89.90;;;;;;5096630;28;20036;-88
2022/05/02 04:19:19;;;;;;;12.13;9.45;;;7.90;90.00;;;;;;5095038;28;20364;-89
2022/05/02 04:22:23;;;;;;;10.82;8.85;;;7.80;90.00;;;;;;5104136;28;20032;-89
2022/05/02 04:24:59;;;;;;;11.00;8.85;;;7.80;90.10;;;;;;5102247;28;20031;-88
2022/05/02 04:27:40;;;;;;;12.00;8.90;;;7.80;90.10;;;;;;5118567;28;20040;-93
2022/05/02 04:30:25;;;;;;;;;;;;;;;;;;;;;
2022/05/02 04:33:17;;;;;;;11.77;9.80;;;7.70;90.20;;;;;;5112286;28;20059;-88
2022/05/02 04:36:12;;;;;;;;;;;;;;;;;;;;;
2022/05/02 04:39:10;;;;;;;;;;;;;;;;;;;;;
2022/05/02 04:58:09;;;;;;;10.95;9.18;;;7.60;90.70;;;;;;5097049;28;20405;-89
2022/05/02 05:01:37;;;;;;;;;;;;;;;;;;;;;
2022/05/02 05:04:17;;;;;;;;;;;;;;;;;;;;;
2022/05/02 05:11:07;;;;;;;;;;;;;;;;;;;;;
2022/05/02 05:16:20;;;;;;;12.73;9.18;;;7.70;90.90;;;;;;5053355;28;20044;-90
2022/05/02 05:20:37;;;;;;;11.45;9.02;;;7.80;91.00;;;;;;5049678;28;20147;-88
2022/05/02 05:23:29;;;;;;;12.30;9.93;;;7.90;91.10;;;;;;5054998;28;20040;-89
2022/05/02 05:27:02;;;;;;;;;;;;;;;;;;;;;
2022/05/02 05:30:31;;;;;;;13.00;9.98;;;8.00;91.30;;;;;;4975276;28;20049;-90
2022/05/02 05:33:06;;;;;;;10.38;9.18;;;8.00;91.30;;;;;;4939362;28;20050;-89
2022/05/02 05:36:05;;;;;;;13.43;10.15;;;8.00;91.30;;;;;;4958608;28;20038;-90
2022/05/02 05:39:07;;;;;;;13.38;10.20;;;8.10;91.40;;;;;;4959315;28;20034;-89
2022/05/02 05:46:06;;;;;;;11.90;9.80;;;8.30;91.50;;;;;;5052850;28;20095;-90
2022/05/02 05:49:03;;;;;;;11.68;9.48;;;8.40;91.50;;;;;;4960790;28;20027;-90
2022/05/02 05:52:38;;;;;;;;;;;;;;;;;;;;;
2022/05/02 05:55:49;;;;;;;;;;;;;;;;;;;;;
2022/05/02 05:59:04;;;;;;;12.23;9.07;;;8.60;91.50;;;;;;4944484;29;20051;-89
2022/05/02 06:02:05;;;;;;;11.30;9.68;;;8.70;91.50;;;;;;4941950;29;20095;-89
2022/05/02 06:05:18;;;;;;;11.38;9.48;;;8.70;91.40;;;;;;4981435;28;20031;-92
2022/05/02 06:08:03;;;;;;;;;;;;;;;;;;;;;
2022/05/02 06:11:08;;;;;;;10.77;9.52;;;8.90;91.40;;;;;;4995121;28;20033;-90
2022/05/02 06:14:30;;;;;;;11.20;8.77;;;9.00;91.50;;;;;;5071295;28;20067;-89
2022/05/02 06:20:29;;;;;;;11.60;8.55;;;9.10;91.40;;;;;;5076320;28;20031;-89
2022/05/02 06:23:31;;;;;;;;;;;;;;;;;;;;;
2022/05/02 06:26:24;;;;;;;10.40;8.65;;;9.30;91.30;;;;;;5072675;28;20033;-89
2022/05/02 06:29:02;;;;;;;10.95;8.88;;;9.40;91.30;;;;;;5091788;28;20472;-89
2022/05/02 06:31:59;;;;;;;11.50;9.15;;;9.50;91.20;;;;;;5094120;28;20020;-88
2022/05/02 06:38:50;;;;;;;12.02;8.48;;;9.70;91.10;;;;;;5080907;28;20392;-88
2022/05/02 06:42:03;;;;;;;;;;;;;;;;;;;;;
2022/05/02 06:44:45;;;;;;;10.00;7.72;;;10.00;90.80;;;;;;5095400;28;20024;-88
2022/05/02 06:48:16;;;;;;;;;;;;;;;;;;;;;
2022/05/02 06:50:53;;;;;;;11.25;8.82;;;10.30;90.60;;;;;;5093981;28;20024;-89
2022/05/02 06:54:13;;;;;;;11.00;8.30;;;10.50;90.50;;;;;;5093324;28;20025;-88
2022/05/02 06:57:15;;;;;;;;;;;;;;;;;;;;;
2022/05/02 07:00:30;;;;;;;;;;;;;;;;;;;;;
2022/05/02 07:03:51;;;;;;;10.80;7.65;;;10.80;90.10;;;;;;5091594;28;20392;-88
2022/05/02 07:10:05;;;;;;;11.63;8.85;;;11.20;89.60;;;;;;4985819;28;20070;-89
2022/05/02 07:13:15;;;;;;;;;;;;;;;;;;;;;
2022/05/02 07:16:17;;;;;;;7.97;7.15;;;11.40;88.30;;;;;;5089553;28;20054;-89
2022/05/02 07:19:51;;;;;;;;;;;;;;;;;;;;;
2022/05/02 07:36:36;;;;;;;7.63;6.85;;;12.10;85.60;;;;;;5033802;28;20038;-90
2022/05/02 07:39:23;;;;;;;;;;;;;;;;;;;;;
2022/05/02 07:42:28;;;;;;;7.65;6.32;;;12.30;84.10;;;;;;5106255;28;20075;-88
2022/05/02 07:45:29;;;;;;;8.70;6.15;;;12.50;84.00;;;;;;5092078;28;20032;-89
2022/05/02 07:57:45;;;;;;;6.93;6.20;;;12.90;82.30;;;;;;5062798;28;20068;-87
2022/05/02 08:01:02;;;;;;;9.05;7.22;;;12.90;82.00;;;;;;5070829;28;20024;-88
2022/05/02 08:04:05;;;;;;;9.23;6.88;;;13.00;80.80;;;;;;5002492;28;20534;-87
2022/05/02 08:07:05;;;;;;;9.40;7.03;;;13.10;80.30;;;;;;5072014;28;20029;-87
2022/05/02 08:13:35;;;;;;;;;;;;;;;;;;;;;
2022/05/02 08:30:56;;;;;;;9.18;7.22;;;13.70;76.10;;;;;;5070037;28;20408;-90
2022/05/02 08:34:32;;;;;;;;;;;;;;;;;;;;;
2022/05/02 09:02:20;;;;;;;;;;;;;;;;;;;;;
2022/05/02 09:12:22;;;;;;;;;;;;;;;;;;;;;
2022/05/02 09:25:59;;;;;;;;;;;;;;;;;;;;;
2022/05/02 09:28:51;;;;;;;;;;;;;;;;;;;;;
2022/05/02 09:31:47;;;;;;;8.48;7.57;;;14.80;71.50;;;;;;5057432;28;20047;-88
2022/05/02 09:35:20;;;;;;;9.20;6.72;;;14.90;71.30;;;;;;5088878;28;20112;-88
2022/05/02 09:38:29;;;;;;;9.23;6.63;;;15.00;71.20;;;;;;5033287;28;20164;-87
2022/05/02 09:41:28;;;;;;;11.77;7.30;;;15.00;71.20;;;;;;5059175;28;20036;-87
2022/05/02 09:54:19;;;;;;;;;;;;;;;;;;;;;
2022/05/02 09:57:26;;;;;;;8.95;7.43;;;15.30;69.60;;;;;;5096154;28;20035;-86
2022/05/02 10:06:33;;;;;;;11.95;9.70;;;15.50;68.00;;;;;;5074173;28;20036;-88
2022/05/02 10:15:52;;;;;;;;;;;;;;;;;;;;;
2022/05/02 10:18:23;;;;;;;10.02;7.40;;;15.60;66.80;;;;;;5053621;28;19905;-87
2022/05/02 10:21:11;;;;;;;8.38;7.18;;;15.70;67.10;;;;;;5052859;28;20413;-87
2022/05/02 10:24:10;;;;;;;7.70;6.90;;;15.70;67.20;;;;;;5052736;28;20025;-86
2022/05/02 10:27:33;;;;;;;11.70;8.13;;;15.80;67.80;;;;;;5052112;28;20051;-86
2022/05/02 10:30:46;;;;;;;9.80;7.50;;;15.90;66.90;;;;;;4986287;28;20040;-88
2022/05/02 10:37:27;;;;;;;8.65;7.53;;;16.00;66.70;;;;;;5076124;28;20077;-87
2022/05/02 10:40:12;;;;;;;7.45;6.43;;;16.10;66.20;;;;;;5099744;28;20394;-87
2022/05/02 10:45:42;;;;;;;9.15;8.18;;;16.20;66.30;;;;;;5100707;28;20032;-86
2022/05/02 10:49:02;;;;;;;;;;;;;;;;;;;;;
2022/05/02 10:53:02;;;;;;;7.88;6.57;;;16.20;65.10;;;;;;5115227;28;20042;-88
2022/05/02 10:59:41;;;;;;;;;;;;;;;;;;;;;
2022/05/02 11:06:14;;;;;;;7.78;6.07;;;16.50;65.00;;;;;;5136274;27;20046;-88
2022/05/02 11:09:10;;;;;;;7.63;6.55;;;16.60;65.30;;;;;;5108441;27;20031;-87
2022/05/02 11:11:51;;;;;;;8.00;6.18;;;16.70;65.50;;;;;;5119275;28;20054;-86
2022/05/02 11:14:36;;;;;;;7.35;6.35;;;16.70;65.50;;;;;;5094964;28;20039;-87
2022/05/02 11:26:50;;;;;;;8.53;7.70;;;16.90;64.20;;;;;;5114786;28;20394;-88
2022/05/02 11:29:42;;;;;;;8.60;7.03;;;16.90;63.50;;;;;;5082138;28;20108;-86
2022/05/02 11:32:49;;;;;;;9.20;6.88;;;16.90;63.60;;;;;;5096395;28;20356;-86
2022/05/02 11:35:36;;;;;;;9.27;6.65;;;17.00;64.00;;;;;;5096329;28;20475;-86
2022/05/02 11:38:29;;;;;;;7.97;5.82;;;17.00;64.20;;;;;;5079474;28;20119;-86
2022/05/02 11:41:18;;;;;;;8.02;6.63;;;17.10;64.00;;;;;;5095616;28;20034;-87
2022/05/02 11:43:51;;;;;;;10.32;7.63;;;17.10;62.70;;;;;;5096688;28;20360;-88
2022/05/02 11:46:24;;;;;;;6.85;5.68;;;17.10;62.20;;;;;;5096092;28;20038;-87
2022/05/02 11:49:23;;;;;;;;;;;;;;;;;;;;;
2022/05/02 11:51:55;;;;;;;8.05;7.20;;;17.10;61.50;;;;;;5114484;28;20024;-86
2022/05/02 11:54:35;;;;;;;8.25;6.38;;;17.20;61.50;;;;;;5097888;28;20019;-86
2022/05/02 11:57:28;;;;;;;7.78;6.45;;;17.20;61.40;;;;;;5097897;28;20032;-86
2022/05/02 12:00:42;;;;;;;7.53;5.63;;;17.20;61.40;;;;;;5082403;28;20467;-87
2022/05/02 12:03:28;;;;;;;6.18;5.18;;;17.30;61.60;;;;;;5096304;28;20032;-88
2022/05/02 12:06:23;;;;;;;6.82;5.82;;;17.40;61.70;;;;;;5097551;28;20475;-88
2022/05/02 12:09:02;;;;;;;;;;;;;;;;;;;;;
2022/05/02 12:11:52;;;;;;;6.93;5.90;;;17.50;61.60;;;;;;5116467;28;20103;-88
2022/05/02 12:14:37;;;;;;;5.32;4.65;;;17.60;62.00;;;;;;5097830;28;20081;-89
2022/05/02 12:18:20;;;;;;;;;;;;;;;;;;;;;
2022/05/02 12:21:34;;;;;;;;;;;;;;;;;;;;;
2022/05/02 12:24:11;;;;;;;7.28;6.18;;;17.70;61.40;;;;;;4994080;28;20026;-88
2022/05/02 12:27:13;;;;;;;;;;;;;;;;;;;;;
2022/05/02 12:30:18;;;;;;;6.40;5.80;;;17.70;61.20;;;;;;5120330;28;20030;-89
2022/05/02 12:40:31;;;;;;;5.93;5.10;;;17.80;61.70;;;;;;4959406;29;20043;-90
2022/05/02 12:51:42;;;;;;;7.28;5.47;;;18.10;61.00;;;;;;4949080;28;20503;-90
2022/05/02 12:54:30;;;;;;;5.97;4.70;;;18.10;61.10;;;;;;5001710;28;20430;-91
2022/05/02 13:04:14;;;;;;;;;;;;;;;;;;;;;
2022/05/02 13:07:16;;;;;;;5.70;4.22;;;18.40;62.10;;;;;;5017414;28;20090;-89
2022/05/02 13:10:23;;;;;;;;;;;18.50;62.40;;;;;;5023483;28;20120;-87
2022/05/02 13:13:10;;;;;;;5.80;5.20;;;18.60;61.20;;;;;;5034641;28;19909;-85
2022/05/02 13:16:21;;;;;;;;;;;;;;;;;;;;;
2022/05/02 13:22:22;;;;;;;5.68;4.90;;;18.60;59.60;;;;;;5082205;28;20063;-85
2022/05/02 13:28:47;;;;;;;;;;;;;;;;;;;;;
2022/05/02 13:31:42;;;;;;;5.90;5.28;;;18.80;59.70;;;;;;5116852;28;20032;-85
2022/05/02 13:44:52;;;;;;;6.43;5.28;;;18.60;58.00;;;;;;5077681;28;20446;-88
2022/05/02 13:51:31;;;;;;;;;;;;;;;;;;;;;
2022/05/02 13:54:30;;;;;;;5.93;5.10;;;18.40;58.80;;;;;;5116583;28;20477;-88
2022/05/02 13:57:34;;;;;;;;;;;;;;;;;;;;;
2022/05/02 14:03:22;;;;;;;5.35;4.70;;;18.30;59.10;;;;;;5100299;28;20073;-87
2022/05/02 14:15:20;;;;;;;;;;;18.40;59.60;;;;;;5053812;28;20024;-86
2022/05/02 14:18:01;;;;;;;;;;;;;;;;;;;;;
2022/05/02 14:30:18;;;;;;;4.90;4.38;;;18.70;57.10;;;;;;5115819;28;20053;-87
2022/05/02 14:33:05;;;;;;;5.30;4.30;;;18.80;57.60;;;;;;5081962;28;20043;-86
2022/05/02 14:35:41;;;;;;;6.72;5.00;;;18.80;57.70;;;;;;5097302;28;20115;-86
2022/05/02 14:38:15;;;;;;;5.60;5.00;;;18.90;57.90;;;;;;5097514;28;20023;-85
2022/05/02 14:41:19;;;;;;;;;;;;;;;;;;;;;
2022/05/02 14:43:47;;;;;;;6.00;5.35;;;19.00;57.90;;;;;;5115561;28;20337;-86
2022/05/02 14:49:31;;;;;;;8.00;5.90;;;19.10;57.80;;;;;;5119318;28;20086;-86
2022/05/02 14:52:35;;;;;;;6.68;5.30;;;19.10;56.80;;;;;;5105052;28;20022;-86
2022/05/02 14:55:28;;;;;;;8.00;5.82;;;19.10;56.20;;;;;;5118559;27;20050;-85
2022/05/02 14:58:05;;;;;;;7.20;5.60;;;19.10;55.90;;;;;;5122011;27;20012;-86
2022/05/02 15:00:37;;;;;;;7.72;5.75;;;19.10;55.90;;;;;;5139318;27;20028;-89
2022/05/02 15:03:12;;;;;;;7.20;5.85;;;19.10;55.80;;;;;;5109115;28;20092;-86
2022/05/02 15:05:49;;;;;;;6.10;4.70;;;19.10;55.90;;;;;;5081202;28;20050;-85
2022/05/02 15:09:10;;;;;;;5.47;4.70;;;19.10;56.00;;;;;;5115210;28;20047;-86
2022/05/02 15:12:20;;;;;;;4.47;4.07;;;19.10;56.30;;;;;;5096442;28;20023;-85
2022/05/02 15:15:14;;;;;;;;;;;;;;;;;;;;;
2022/05/02 15:18:06;;;;;;;5.10;3.85;;;19.20;56.80;;;;;;5114607;28;20024;-86
2022/05/02 15:21:25;;;;;;;;;;;;;;;;;;;;;
2022/05/02 15:25:17;;;;;;;4.30;3.90;;;19.20;56.80;;;;;;5107458;28;20034;-87
2022/05/02 15:39:30;;;;;;;5.57;3.97;;;19.30;56.90;;;;;;5114743;28;20038;-87
2022/05/02 15:42:34;;;;;;;5.82;4.30;;;19.30;57.00;;;;;;5096418;28;20019;-87
2022/05/02 15:45:19;;;;;;;5.00;4.50;;;19.30;56.40;;;;;;5094983;28;20032;-87
2022/05/02 15:55:36;;;;;;;;;;;;;;;;;;;;;
2022/05/02 15:58:24;;;;;;;7.13;5.18;;;19.00;56.10;;;;;;5114079;28;20050;-88
2022/05/02 16:01:20;;;;;;;;;;;;;;;;;;;;;
2022/05/02 16:04:25;;;;;;;7.53;5.05;;;18.90;56.20;;;;;;5098320;28;20028;-87
2022/05/02 16:06:57;;;;;;;9.18;5.72;;;18.90;56.10;;;;;;5095904;28;20073;-87
2022/05/02 16:13:19;;;;;;;;;;;;;;;;;;;;;
2022/05/02 16:16:06;;;;;;;;;;;;;;;;;;;;;
2022/05/02 16:22:27;;;;;;;;;;;;;;;;;;;;;
2022/05/02 16:25:43;;;;;;;;;;;;;;;;;;;;;
2022/05/02 16:31:52;;;;;;;3.80;3.50;;;18.50;56.20;;;;;;5106283;28;20027;-88
2022/05/02 16:34:52;;;;;;;;;;;;;;;;;;;;;
2022/05/02 16:37:23;;;;;;;4.28;3.67;;;18.50;56.40;;;;;;5101003;28;20032;-86
2022/05/02 16:40:02;;;;;;;5.22;4.38;;;18.50;56.60;;;;;;5096228;28;20069;-87
2022/05/02 16:42:37;;;;;;;4.93;4.10;;;18.50;56.40;;;;;;5095865;28;20023;-85
2022/05/02 16:45:17;;;;;;;5.55;3.97;;;18.50;56.60;;;;;;5103408;28;20024;-88
2022/05/02 16:47:51;;;;;;;5.68;4.00;;;18.50;56.70;;;;;;5118080;28;20012;-87
2022/05/02 16:50:56;;;;;;;4.18;3.47;;;18.40;56.70;;;;;;5119262;28;20008;-86
2022/05/02 16:53:22;;;;;;;4.47;3.92;;;18.40;57.00;;;;;;5118917;28;20038;-86
2022/05/02 16:56:04;;;;;;;;;;;;;;;;;;;;;
2022/05/02 16:58:33;;;;;;;5.60;4.07;;;18.40;56.20;;;;;;5116204;28;20118;-85
2022/05/02 17:01:22;;;;;;;5.75;4.63;;;18.40;56.50;;;;;;5096174;28;20023;-85
2022/05/02 17:04:10;;;;;;;4.28;3.88;;;18.40;56.20;;;;;;5111811;28;20030;-86
2022/05/02 17:06:41;;;;;;;;;;;18.40;56.40;;;;;;5096257;28;20122;-85
2022/05/02 17:09:14;;;;;;;4.88;3.53;;;18.40;56.60;;;;;;5075451;28;19920;-85
2022/05/02 17:11:50;;;;;;;6.13;4.60;;;18.40;56.80;;;;;;5095864;28;20028;-85
2022/05/02 17:17:30;;;;;;;10.40;6.05;;;18.40;55.40;;;;;;5080577;28;20057;-85
2022/05/02 17:19:59;;;;;;;6.65;4.88;;;18.30;54.20;;;;;;5095126;28;20031;-86
2022/05/02 17:22:31;;;;;;;5.97;5.00;;;18.30;54.50;;;;;;5095447;28;20027;-86
2022/05/02 17:25:18;;;;;;;5.72;4.80;;;18.30;54.50;;;;;;5095331;28;20443;-86
2022/05/02 17:28:15;;;;;;;5.93;4.63;;;18.20;54.50;;;;;;5079363;28;20046;-85
2022/05/02 17:31:17;;;;;;;;;;;;;;;;;;;;;
2022/05/02 17:33:52;;;;;;;7.10;4.60;;;18.20;54.60;;;;;;5095496;28;20058;-88
2022/05/02 17:36:31;;;;;;;6.32;3.80;;;18.10;54.80;;;;;;5095841;28;20024;-88
2022/05/02 17:42:28;;;;;;;4.22;3.83;;;18.00;55.10;;;;;;5080558;28;20032;-87
2022/05/02 17:45:20;;;;;;;;;;;;;;;;;;;;;
2022/05/02 17:48:23;;;;;;;4.25;3.75;;;17.90;55.30;;;;;;5096378;28;20043;-88
2022/05/02 17:51:24;;;;;;;5.10;4.18;;;17.90;55.50;;;;;;5092444;28;20120;-90
2022/05/02 17:54:10;;;;;;;5.15;3.88;;;17.80;55.30;;;;;;5090683;28;20483;-86
2022/05/02 17:56:53;;;;;;;6.55;4.30;;;17.80;54.90;;;;;;5078887;28;20035;-91
2022/05/02 17:59:37;;;;;;;4.47;3.92;;;17.70;55.20;;;;;;5094533;28;20036;-85
2022/05/02 18:02:05;;;;;;;6.38;3.75;;;17.60;55.20;;;;;;5078545;28;20090;-86
2022/05/02 18:04:51;;;;;;;6.20;3.50;;;17.60;55.50;;;;;;5094097;28;20047;-86
2022/05/02 18:07:40;;;;;;;;;;;;;;;;;;;;;
2022/05/02 18:10:41;;;;;;;5.43;3.60;;;17.50;56.30;;;;;;5115663;28;20054;-86
2022/05/02 18:13:30;;;;;;;5.93;3.92;;;17.40;57.90;;;;;;5097579;28;20080;-86
2022/05/02 18:16:13;;;;;;;4.40;3.60;;;17.30;58.70;;;;;;5115108;28;20035;-86
2022/05/02 18:18:56;;;;;;;5.68;3.47;;;17.20;60.10;;;;;;5097797;28;20394;-86
2022/05/02 18:21:41;;;;;;;5.70;3.80;;;17.10;60.50;;;;;;5097601;28;20448;-86
2022/05/02 18:27:45;;;;;;;;;;;;;;;;;;;;;
2022/05/02 18:30:53;;;;;;;4.55;3.25;;;16.70;62.40;;;;;;5115800;28;20020;-87
2022/05/02 18:34:05;;;;;;;;;;;;;;;;;;;;;
2022/05/02 18:36:57;;;;;;;4.78;3.58;;;16.40;63.30;;;;;;5116842;28;20053;-87
2022/05/02 18:39:37;;;;;;;3.78;3.13;;;16.30;63.60;;;;;;5088955;28;20024;-86
2022/05/02 18:42:48;;;;;;;4.95;2.97;;;16.20;63.80;;;;;;5106419;28;20015;-86
2022/05/02 18:54:36;;;;;;;3.03;2.60;;;15.80;65.00;;;;;;5115873;28;20060;-87
2022/05/02 18:57:12;;;;;;;3.25;2.40;;;15.70;65.00;;;;;;5081100;28;20042;-87
2022/05/02 18:59:55;;;;;;;4.50;2.70;;;15.60;65.30;;;;;;5079955;28;20028;-87
2022/05/02 19:02:35;;;;;;;2.13;1.92;;;15.60;65.50;;;;;;5096928;28;20360;-86
2022/05/02 19:05:10;;;;;;;4.38;1.92;;;15.50;65.60;;;;;;5096389;28;20482;-86
2022/05/02 19:08:22;;;;;;;3.25;2.13;;;15.50;65.70;;;;;;5064509;28;20525;-86
2022/05/02 19:11:07;;;;;;;4.28;2.50;;;15.40;65.90;;;;;;5073116;28;20041;-86
2022/05/02 19:13:48;;;;;;;3.22;2.28;;;15.30;66.10;;;;;;5073007;28;20031;-86
2022/05/02 19:16:37;;;;;;;;;;;15.30;66.20;;;;;;5090245;28;20543;-86
2022/05/02 19:19:23;;;;;;;2.67;2.00;;;15.10;66.40;;;;;;5030784;28;20360;-87
2022/05/02 19:22:24;;;;;;;2.55;1.85;;;15.00;66.90;;;;;;5089939;28;20491;-86
2022/05/02 19:25:17;;;;;;;3.28;1.70;;;15.00;66.90;;;;;;5070430;28;20501;-86
2022/05/02 19:39:59;;;;;;;2.75;1.67;;;14.70;67.90;;;;;;5073780;28;20087;-86
2022/05/02 19:43:15;;;;;;;2.28;1.80;;;14.60;68.00;;;;;;5073494;28;20032;-87
2022/05/02 19:49:32;;;;;;;;;;;14.50;68.20;;;;;;5054282;28;20416;-86
2022/05/02 19:52:18;;;;;;;3.17;1.67;;;14.50;68.30;;;;;;5037352;28;19904;-87
2022/05/02 19:58:14;;;;;;;2.33;1.95;;;14.30;68.80;;;;;;5052658;28;20100;-87
2022/05/02 20:00:45;;;;;;;2.88;2.00;;;14.20;69.00;;;;;;5035469;28;20059;-86
2022/05/02 20:03:20;;;;;;;4.57;2.38;;;14.20;69.10;;;;;;5059541;28;20460;-87
2022/05/02 20:06:12;;;;;;;2.38;1.90;;;14.20;69.10;;;;;;5056089;28;20464;-88
2022/05/02 20:08:50;;;;;;;3.83;1.70;;;14.20;69.20;;;;;;5082634;28;20475;-86
2022/05/02 20:11:19;;;;;;;3.20;2.20;;;14.10;69.20;;;;;;5080507;28;20062;-86
2022/05/02 20:13:46;;;;;;;3.97;1.95;;;14.10;69.30;;;;;;5095876;28;20019;-86
2022/05/02 20:16:12;;;;;;;3.15;1.88;;;14.00;69.30;;;;;;5095856;28;20031;-86
2022/05/02 20:18:46;;;;;;;4.82;2.03;;;14.00;69.30;;;;;;5095922;28;20020;-86
2022/05/02 20:21:37;;;;;;;2.20;1.80;;;14.00;69.40;;;;;;5080626;28;20020;-86
2022/05/02 20:24:09;;;;;;;;;;;;;;;;;;;;;
2022/05/02 20:26:53;;;;;;;3.55;1.92;;;13.90;69.20;;;;;;5122538;27;20050;-86
2022/05/02 20:29:26;;;;;;;2.30;1.90;;;13.90;69.20;;;;;;5120348;27;20041;-88
2022/05/02 20:37:43;;;;;;;3.65;1.50;;;13.80;68.90;;;;;;5115056;28;20134;-87
2022/05/02 20:43:13;;;;;;;3.55;1.70;;;13.80;68.80;;;;;;5099022;28;20031;-86
2022/05/02 20:45:44;;;;;;;1.60;1.40;;;13.80;68.80;;;;;;5098685;28;20028;-86
2022/05/02 20:48:16;;;;;;;1.75;1.50;;;13.70;68.70;;;;;;5099522;28;20019;-86
2022/05/02 20:51:01;;;;;;;;;;;;;;;;;;;;;
2022/05/02 20:53:46;;;;;;;2.35;1.73;;;13.60;68.40;;;;;;5101308;28;20019;-86
2022/05/02 20:56:42;;;;;;;;;;;;;;;;;;;;;
2022/05/02 20:59:08;;;;;;;2.45;1.90;;;13.60;68.40;;;;;;5116843;28;20028;-87
2022/05/02 21:01:47;;;;;;;2.40;1.70;;;13.60;68.30;;;;;;5082356;28;20115;-86
2022/05/02 21:04:25;;;;;;;;;;;;;;;;;;;;;
2022/05/02 21:06:56;;;;;;;2.20;1.67;;;13.50;68.00;;;;;;5117465;28;20120;-86
2022/05/02 21:09:42;;;;;;;3.13;1.58;;;13.50;67.90;;;;;;5098364;28;20051;-86
2022/05/02 21:12:28;;;;;;;2.88;1.80;;;13.40;68.00;;;;;;5098527;28;20546;-86
2022/05/02 21:15:34;;;;;;;3.45;1.80;;;13.40;67.80;;;;;;5098836;28;20081;-86
2022/05/02 21:18:30;;;;;;;2.75;1.52;;;13.30;67.80;;;;;;5068068;28;20040;-86
2022/05/02 21:21:23;;;;;;;2.13;1.60;;;13.30;67.80;;;;;;5098698;28;20110;-86
2022/05/02 21:24:07;;;;;;;1.60;1.45;;;13.30;67.70;;;;;;5098839;28;20016;-86
2022/05/02 21:27:05;;;;;;;2.13;1.63;;;13.30;67.40;;;;;;5098121;28;20169;-86
2022/05/02 21:29:45;;;;;;;2.47;1.33;;;13.20;67.10;;;;;;5098518;28;20416;-86
2022/05/02 21:32:31;;;;;;;3.28;1.48;;;13.20;67.20;;;;;;5098497;28;20024;-87
2022/05/02 21:35:06;;;;;;;1.83;1.33;;;13.20;67.20;;;;;;5117021;28;20025;-87
2022/05/02 21:37:40;;;;;;;2.25;1.50;;;13.10;67.10;;;;;;5116700;28;20429;-86
2022/05/02 21:40:12;;;;;;;2.05;1.75;;;13.10;67.10;;;;;;5097963;28;20031;-86
2022/05/02 21:42:39;;;;;;;3.63;1.83;;;13.10;67.10;;;;;;5098557;28;20020;-86
2022/05/02 21:45:11;;;;;;;3.47;1.52;;;13.00;66.90;;;;;;5098194;28;20080;-86
2022/05/02 21:47:46;;;;;;;4.07;2.10;;;13.00;67.10;;;;;;5080858;28;20036;-86
2022/05/02 21:50:25;;;;;;;2.63;1.45;;;13.00;67.10;;;;;;5098362;28;20024;-86
2022/05/02 21:52:51;;;;;;;3.20;1.60;;;12.90;66.80;;;;;;5098512;28;20357;-87
2022/05/02 21:55:16;;;;;;;3.38;1.45;;;12.90;66.90;;;;;;5097239;28;20015;-87
2022/05/02 21:57:52;;;;;;;1.80;1.50;;;12.90;66.80;;;;;;5098127;28;20387;-87
2022/05/02 22:00:26;;;;;;;3.50;1.50;;;12.80;66.70;;;;;;5081847;28;20031;-86
2022/05/02 22:02:54;;;;;;;1.85;1.48;;;12.80;66.80;;;;;;5098102;28;20019;-86
2022/05/02 22:05:21;;;;;;;1.48;1.20;;;12.80;66.80;;;;;;5098755;28;20016;-87